Time;durP1;ratioP1;P1;durP2;ratioP2;P2;SDS_P1;SDS_P2;PMS_P1;PMS_P2;Temp;Humidity;BMP_temperature;BMP_pressure;BME280_temperature;BME280_humidity;BME280_pressure;Samples;Min_cycle;Max_cycle;Signal;HPM_P1;HPM_P2
2022/09/11 00:01:40;;;;;;;5.13;1.90;;;;;;;8.15;100.00;98328.97;5172873;27;20061;-46
2022/09/11 00:04:07;;;;;;;2.17;1.98;;;;;;;8.30;100.00;98327.25;5172544;27;20050;-46
2022/09/11 00:06:34;;;;;;;2.33;1.83;;;;;;;8.22;100.00;98326.34;5172467;27;20046;-46
2022/09/11 00:09:04;;;;;;;5.28;2.25;;;;;;;8.25;100.00;98309.22;5172447;27;20061;-46
2022/09/11 00:11:34;;;;;;;1.95;1.80;;;;;;;8.24;100.00;98304.94;5172884;27;20057;-46
2022/09/11 00:14:02;;;;;;;4.20;1.75;;;;;;;8.15;100.00;98309.88;5172528;27;20106;-46
2022/09/11 00:16:32;;;;;;;2.33;1.90;;;;;;;8.36;100.00;98298.44;5172320;27;20099;-49
2022/09/11 00:19:00;;;;;;;1.60;1.50;;;;;;;8.11;100.00;98292.66;5172538;27;20050;-46
2022/09/11 00:21:28;;;;;;;2.85;1.63;;;;;;;8.11;100.00;98287.19;5172353;27;20052;-46
2022/09/11 00:23:54;;;;;;;2.53;1.63;;;;;;;8.32;100.00;98285.91;5172415;27;20074;-47
2022/09/11 00:26:21;;;;;;;2.58;1.90;;;;;;;8.32;100.00;98261.31;5172168;27;20053;-46
2022/09/11 00:28:49;;;;;;;2.45;1.85;;;;;;;8.31;100.00;98248.84;5172473;27;20061;-46
2022/09/11 00:31:17;;;;;;;4.90;1.83;;;;;;;8.37;100.00;98266.47;5172297;27;20046;-48
2022/09/11 00:33:43;;;;;;;1.90;1.52;;;;;;;8.38;100.00;98257.13;5172452;27;20098;-47
2022/09/11 00:36:12;;;;;;;6.82;1.75;;;;;;;8.48;100.00;98245.56;5172065;27;20042;-47
2022/09/11 00:38:39;;;;;;;2.63;1.30;;;;;;;8.16;100.00;98245.13;5172035;27;20057;-47
2022/09/11 00:41:08;;;;;;;3.67;1.50;;;;;;;8.17;100.00;98230.34;5172276;27;20077;-49
2022/09/11 00:43:51;;;;;;;2.00;1.40;;;;;;;8.37;100.00;98217.31;5172026;27;20042;-47
2022/09/11 00:46:17;;;;;;;1.60;1.23;;;;;;;8.32;100.00;98214.91;5171971;27;20137;-47
2022/09/11 00:48:48;;;;;;;1.58;1.27;;;;;;;8.37;100.00;98207.16;5171941;27;20050;-48
2022/09/11 00:51:18;;;;;;;2.33;1.95;;;;;;;8.30;100.00;98209.81;5172337;27;20083;-48
2022/09/11 00:53:46;;;;;;;0.90;0.85;;;;;;;8.44;100.00;98195.56;5175661;27;20058;-47
2022/09/11 00:56:13;;;;;;;1.65;0.88;;;;;;;8.32;100.00;98193.84;5176089;27;20042;-48
2022/09/11 00:58:43;;;;;;;1.67;1.30;;;;;;;8.32;100.00;98193.84;5175537;27;20054;-51
2022/09/11 01:01:09;;;;;;;2.00;1.00;;;;;;;8.32;100.00;98195.78;5175922;27;20413;-47
2022/09/11 01:03:36;;;;;;;1.95;1.00;;;;;;;8.35;100.00;98193.09;5175729;27;20046;-48
2022/09/11 01:06:03;;;;;;;1.10;1.00;;;;;;;8.40;100.00;98179.16;5175654;27;20047;-47
2022/09/11 01:08:30;;;;;;;1.48;1.30;;;;;;;8.31;100.00;98178.63;5175508;27;20133;-51
2022/09/11 01:11:11;;;;;;;8.75;1.15;;;;;;;8.49;100.00;98171.41;5175570;27;20099;-47
2022/09/11 01:13:46;;;;;;;2.67;1.13;;;;;;;8.36;100.00;98161.09;5175489;27;20141;-48
2022/09/11 01:16:18;;;;;;;1.65;1.10;;;;;;;8.32;100.00;98152.88;5175575;27;20098;-46
2022/09/11 01:18:52;;;;;;;1.20;1.10;;;;;;;8.23;100.00;98145.00;5175153;27;20136;-48
2022/09/11 01:21:55;;;;;;;1.15;0.90;;;;;;;8.13;100.00;98139.41;5175334;27;20125;-47
2022/09/11 01:24:43;;;;;;;3.95;1.13;;;;;;;8.32;100.00;98131.03;5158059;27;20054;-47
2022/09/11 01:27:38;;;;;;;1.45;1.00;;;;;;;8.49;100.00;98130.44;5175544;27;20054;-47
2022/09/11 01:30:07;;;;;;;;;;;;;;;8.44;100.00;98124.56;5175602;27;20053;-48
2022/09/11 01:32:40;;;;;;;1.67;0.73;;;;;;;8.35;100.00;98118.56;5175088;27;19923;-46
2022/09/11 01:35:11;;;;;;;3.42;1.17;;;;;;;8.57;100.00;98128.56;5175292;27;20450;-47
2022/09/11 01:37:43;;;;;;;1.40;0.98;;;;;;;8.41;100.00;98117.09;5175291;27;20043;-47
2022/09/11 01:40:18;;;;;;;2.22;1.10;;;;;;;8.29;100.00;98111.88;5175005;27;20062;-47
2022/09/11 01:42:49;;;;;;;1.02;0.70;;;;;;;8.42;100.00;98103.06;5175201;27;20050;-47
2022/09/11 01:45:16;;;;;;;1.20;0.80;;;;;;;8.33;100.00;98108.03;5174875;27;20065;-47
2022/09/11 01:47:44;;;;;;;0.70;0.70;;;;;;;8.43;100.00;98096.47;5175037;27;20167;-48
2022/09/11 01:50:14;;;;;;;1.73;0.70;;;;;;;8.48;100.00;98089.84;5174692;27;20050;-47
2022/09/11 01:52:46;;;;;;;0.50;0.50;;;;;;;8.48;100.00;98092.59;5174716;27;20043;-47
2022/09/11 01:55:18;;;;;;;0.63;0.50;;;;;;;8.31;100.00;98082.25;5174722;27;20078;-47
2022/09/11 01:57:50;;;;;;;0.65;0.57;;;;;;;8.50;100.00;98082.09;5174603;27;20054;-51
2022/09/11 02:00:17;;;;;;;0.60;0.50;;;;;;;8.43;100.00;98077.34;5174549;27;20079;-48
2022/09/11 02:02:48;;;;;;;2.22;0.50;;;;;;;8.44;100.00;98070.72;5174330;27;20508;-47
2022/09/11 02:05:17;;;;;;;0.88;0.68;;;;;;;8.42;100.00;98062.09;5174246;27;20141;-50
2022/09/11 02:07:49;;;;;;;0.70;0.50;;;;;;;8.51;100.00;98058.28;5174699;27;20070;-48
2022/09/11 02:10:19;;;;;;;0.50;0.50;;;;;;;8.47;100.00;98050.84;5174373;27;20060;-48
2022/09/11 02:12:52;;;;;;;0.43;0.43;;;;;;;8.55;100.00;98040.75;5174489;27;20082;-48
2022/09/11 02:15:20;;;;;;;0.80;0.50;;;;;;;8.55;100.00;98050.88;5174205;27;20057;-51
2022/09/11 02:17:53;;;;;;;1.40;0.98;;;;;;;8.55;100.00;98046.22;5174215;27;20092;-49
2022/09/11 02:20:20;;;;;;;0.75;0.75;;;;;;;8.64;100.00;98024.81;5174425;27;20089;-47
2022/09/11 02:22:47;;;;;;;0.77;0.77;;;;;;;8.65;100.00;98025.59;5174495;27;20061;-49
2022/09/11 02:25:13;;;;;;;0.55;0.55;;;;;;;8.75;100.00;98027.63;5174576;27;20046;-50
2022/09/11 02:27:40;;;;;;;1.27;0.60;;;;;;;8.62;100.00;98029.09;5174523;27;20543;-51
2022/09/11 02:30:09;;;;;;;0.65;0.40;;;;;;;8.61;100.00;98011.13;5174521;27;20898;-47
2022/09/11 02:32:37;;;;;;;0.90;0.50;;;;;;;8.40;100.00;98026.19;5174137;27;20050;-46
2022/09/11 02:35:06;;;;;;;1.75;0.50;;;;;;;8.65;100.00;98006.47;5174444;27;20106;-51
2022/09/11 02:37:47;;;;;;;0.65;0.60;;;;;;;8.73;100.00;98008.09;5174055;27;20050;-48
2022/09/11 02:40:40;;;;;;;1.10;0.68;;;;;;;8.70;100.00;97997.94;5173962;27;20056;-49
2022/09/11 02:43:24;;;;;;;0.50;0.50;;;;;;;8.71;100.00;97994.03;5168966;27;20077;-48
2022/09/11 02:46:05;;;;;;;0.75;0.40;;;;;;;8.71;100.00;98005.72;5174458;27;20046;-47
2022/09/11 02:48:44;;;;;;;0.40;0.40;;;;;;;8.70;100.00;97989.75;5174271;27;20095;-48
2022/09/11 02:51:23;;;;;;;1.55;0.70;;;;;;;8.77;100.00;97986.25;5173557;27;20075;-47
2022/09/11 02:54:00;;;;;;;0.73;0.52;;;;;;;8.56;100.00;97982.22;5173911;27;20054;-49
2022/09/11 02:56:35;;;;;;;12.90;0.70;;;;;;;8.64;100.00;97978.38;5173710;27;20046;-51
2022/09/11 02:59:06;;;;;;;1.65;0.50;;;;;;;8.75;100.00;97985.84;5173542;27;20042;-47
2022/09/11 03:01:50;;;;;;;3.55;0.40;;;;;;;8.91;100.00;97965.25;5173727;27;20042;-47
2022/09/11 03:04:17;;;;;;;;;;;;;;;8.79;100.00;97957.38;5173855;27;20084;-47
2022/09/11 03:06:44;;;;;;;2.92;0.50;;;;;;;8.79;100.00;97970.25;5173550;27;20050;-47
2022/09/11 03:09:10;;;;;;;0.85;0.40;;;;;;;8.63;100.00;97949.50;5173382;27;20054;-51
2022/09/11 03:11:37;;;;;;;1.55;0.50;;;;;;;8.75;100.00;97962.03;5173840;27;20081;-49
2022/09/11 03:14:03;;;;;;;0.40;0.40;;;;;;;8.76;100.00;97946.41;5173210;27;20073;-48
2022/09/11 03:16:30;;;;;;;0.50;0.50;;;;;;;8.82;100.00;97942.94;5172077;27;20098;-49
2022/09/11 03:18:57;;;;;;;0.30;0.30;;;;;;;8.72;100.00;97946.41;5173413;27;20054;-48
2022/09/11 03:21:23;;;;;;;0.98;0.50;;;;;;;8.73;100.00;97942.53;5173141;27;20046;-49
2022/09/11 03:23:49;;;;;;;3.00;0.52;;;;;;;8.75;100.00;97942.13;5173417;27;20054;-46
2022/09/11 03:26:16;;;;;;;0.30;0.30;;;;;;;8.81;100.00;97940.59;5173136;27;20057;-48
2022/09/11 03:28:42;;;;;;;0.20;0.20;;;;;;;8.95;100.00;97925.03;5173290;27;20421;-48
2022/09/11 03:31:09;;;;;;;0.57;0.40;;;;;;;8.70;100.00;97933.13;5173036;27;20050;-47
2022/09/11 03:33:36;;;;;;;1.17;0.32;;;;;;;8.83;100.00;97943.72;5173218;27;20075;-49
2022/09/11 03:36:03;;;;;;;0.75;0.40;;;;;;;8.82;100.00;97923.81;5173022;27;20095;-50
2022/09/11 03:38:29;;;;;;;2.65;0.60;;;;;;;8.79;100.00;97918.34;5173009;27;20069;-49
2022/09/11 03:40:57;;;;;;;0.30;0.30;;;;;;;8.80;100.00;97914.47;5172983;27;20046;-49
2022/09/11 03:43:23;;;;;;;1.45;0.38;;;;;;;8.77;100.00;97928.88;5173093;27;20052;-47
2022/09/11 03:45:50;;;;;;;1.30;0.32;;;;;;;8.85;100.00;97906.66;5172942;27;20077;-50
2022/09/11 03:48:17;;;;;;;0.60;0.40;;;;;;;8.81;100.00;97907.81;5172821;27;20050;-49
2022/09/11 03:50:44;;;;;;;2.92;0.30;;;;;;;8.88;100.00;97914.09;5173074;27;20405;-47
2022/09/11 03:53:11;;;;;;;0.98;0.43;;;;;;;8.78;100.00;97897.66;5172639;27;20057;-49
2022/09/11 03:55:38;;;;;;;4.32;0.30;;;;;;;8.91;100.00;97905.13;5172872;27;20046;-47
2022/09/11 03:58:05;;;;;;;1.27;0.40;;;;;;;8.95;100.00;97902.41;5172623;27;20082;-47
2022/09/11 04:00:32;;;;;;;0.30;0.30;;;;;;;8.98;100.00;97887.19;5172705;27;20054;-47
2022/09/11 04:02:59;;;;;;;3.10;0.45;;;;;;;8.98;100.00;97898.91;5172608;27;20523;-48
2022/09/11 04:05:25;;;;;;;0.30;0.30;;;;;;;8.92;100.00;97893.00;5172658;27;20046;-48
2022/09/11 04:07:52;;;;;;;1.38;0.40;;;;;;;8.78;100.00;97883.97;5172419;27;20500;-48
2022/09/11 04:10:19;;;;;;;1.23;0.60;;;;;;;8.95;100.00;97877.81;5172362;27;20046;-48
2022/09/11 04:12:45;;;;;;;0.73;0.30;;;;;;;8.99;100.00;97889.53;5172646;27;20057;-51
2022/09/11 04:15:12;;;;;;;1.02;1.00;;;;;;;8.99;100.00;97877.81;5172384;27;20046;-48
2022/09/11 04:17:38;;;;;;;0.40;0.40;;;;;;;9.15;100.00;97870.81;5172515;27;20047;-50
2022/09/11 04:20:06;;;;;;;0.40;0.40;;;;;;;9.19;100.00;97871.63;5172246;27;20050;-47
2022/09/11 04:22:32;;;;;;;0.30;0.30;;;;;;;9.09;100.00;97871.59;5172593;27;20481;-51
2022/09/11 04:24:59;;;;;;;0.30;0.30;;;;;;;9.30;100.00;97868.16;5172421;27;20081;-49
2022/09/11 04:27:26;;;;;;;0.30;0.30;;;;;;;9.18;100.00;97866.53;5172125;27;20050;-49
2022/09/11 04:29:52;;;;;;;0.40;0.40;;;;;;;9.27;100.00;97866.97;5172276;27;20132;-48
2022/09/11 04:32:19;;;;;;;0.40;0.40;;;;;;;9.37;100.00;97866.19;5172344;27;20050;-52
2022/09/11 04:34:45;;;;;;;0.40;0.40;;;;;;;9.24;100.00;97869.69;5172109;27;20487;-52
2022/09/11 04:37:11;;;;;;;0.43;0.40;;;;;;;9.40;100.00;97861.91;5172012;27;20110;-49
2022/09/11 04:39:37;;;;;;;3.70;0.50;;;;;;;9.41;100.00;97860.72;5172138;27;20121;-49
2022/09/11 04:42:04;;;;;;;0.40;0.40;;;;;;;9.37;100.00;97863.47;5172345;27;20054;-52
2022/09/11 04:44:31;;;;;;;0.30;0.30;;;;;;;9.60;100.00;97865.06;5172584;27;20046;-49
2022/09/11 04:46:58;;;;;;;0.52;0.50;;;;;;;9.54;100.00;97863.88;5172455;27;20523;-52
2022/09/11 04:49:24;;;;;;;0.40;0.40;;;;;;;9.18;100.00;97859.13;5172386;27;20054;-49
2022/09/11 04:51:51;;;;;;;0.77;0.40;;;;;;;9.46;100.00;97857.59;5171963;27;20053;-48
2022/09/11 04:54:20;;;;;;;0.40;0.40;;;;;;;9.41;100.00;97844.31;5172410;27;20417;-49
2022/09/11 04:56:47;;;;;;;0.40;0.40;;;;;;;9.47;100.00;97853.72;5172135;27;20507;-48
2022/09/11 04:59:16;;;;;;;0.25;0.25;;;;;;;9.50;100.00;97854.91;5172021;27;20053;-48
2022/09/11 05:01:45;;;;;;;0.32;0.32;;;;;;;9.27;100.00;97850.56;5171762;27;20086;-49
2022/09/11 05:04:12;;;;;;;0.30;0.30;;;;;;;9.43;100.00;97856.44;5171829;27;20054;-49
2022/09/11 05:06:38;;;;;;;0.40;0.40;;;;;;;9.29;100.00;97859.13;5171705;27;20042;-50
2022/09/11 05:09:07;;;;;;;0.50;0.30;;;;;;;9.33;100.00;97846.28;5171752;27;20046;-48
2022/09/11 05:11:34;;;;;;;0.50;0.50;;;;;;;9.36;100.00;97853.72;5172012;27;20042;-49
2022/09/11 05:14:00;;;;;;;0.60;0.60;;;;;;;9.41;100.00;97864.25;5171794;27;20492;-51
2022/09/11 05:16:28;;;;;;;1.02;0.50;;;;;;;9.52;100.00;97858.00;5171964;27;20089;-49
2022/09/11 05:18:57;;;;;;;0.45;0.45;;;;;;;9.59;100.00;97856.06;5171441;27;20118;-48
2022/09/11 05:21:25;;;;;;;0.60;0.60;;;;;;;9.59;100.00;97855.28;5171789;27;20509;-52
2022/09/11 05:23:54;;;;;;;5.10;0.75;;;;;;;9.67;100.00;97851.38;5171351;27;20045;-48
2022/09/11 05:26:22;;;;;;;2.83;0.60;;;;;;;9.61;100.00;97842.00;5171651;27;20047;-50
2022/09/11 05:28:53;;;;;;;0.50;0.50;;;;;;;9.56;100.00;97848.66;5171477;27;20050;-48
2022/09/11 05:31:19;;;;;;;0.63;0.63;;;;;;;9.68;100.00;97847.47;5171382;27;20050;-49
2022/09/11 05:33:46;;;;;;;1.10;0.73;;;;;;;9.74;100.00;97832.22;5171352;27;20094;-49
2022/09/11 05:36:15;;;;;;;1.27;0.90;;;;;;;9.90;100.00;97832.59;5171394;27;20069;-48
2022/09/11 05:38:42;;;;;;;0.80;0.80;;;;;;;9.62;100.00;97847.06;5172385;27;20046;-50
2022/09/11 05:41:10;;;;;;;1.17;0.90;;;;;;;9.88;100.00;97842.38;5175001;27;20050;-49
2022/09/11 05:43:37;;;;;;;0.95;0.95;;;;;;;9.62;100.00;97836.13;5175177;27;20050;-49
2022/09/11 05:46:04;;;;;;;1.20;1.00;;;;;;;9.85;100.00;97846.69;5174532;27;20046;-48
2022/09/11 05:48:31;;;;;;;0.73;0.73;;;;;;;9.84;100.00;97834.16;5175121;27;20095;-49
2022/09/11 05:50:59;;;;;;;1.05;1.00;;;;;;;9.99;100.00;97843.13;5174667;27;20054;-51
2022/09/11 05:53:27;;;;;;;0.80;0.80;;;;;;;9.99;100.00;97845.88;5174904;27;20466;-48
2022/09/11 05:55:54;;;;;;;0.85;0.85;;;;;;;9.98;100.00;97847.06;5174548;27;20046;-48
2022/09/11 05:58:20;;;;;;;0.90;0.90;;;;;;;9.92;100.00;97856.06;5174780;27;20058;-49
2022/09/11 06:00:47;;;;;;;1.00;1.00;;;;;;;10.01;100.00;97851.75;5174421;27;20145;-49
2022/09/11 06:03:13;;;;;;;1.05;0.98;;;;;;;10.02;100.00;97855.28;5174624;27;20042;-48
2022/09/11 06:05:40;;;;;;;0.80;0.80;;;;;;;9.90;100.00;97853.72;5174644;27;20050;-49
2022/09/11 06:08:06;;;;;;;1.25;1.15;;;;;;;9.83;100.00;97848.22;5174308;27;20050;-49
2022/09/11 06:10:33;;;;;;;0.80;0.80;;;;;;;9.99;100.00;97850.56;5174536;27;20085;-48
2022/09/11 06:12:59;;;;;;;0.90;0.90;;;;;;;10.00;100.00;97849.41;5174296;27;20666;-49
2022/09/11 06:15:25;;;;;;;1.88;1.10;;;;;;;10.01;100.00;97849.00;5174609;27;20070;-49
2022/09/11 06:17:52;;;;;;;0.93;0.93;;;;;;;10.17;100.00;97843.13;5174234;27;20141;-49
2022/09/11 06:20:18;;;;;;;1.48;1.10;;;;;;;10.21;100.00;97857.59;5174276;27;20053;-48
2022/09/11 06:22:45;;;;;;;1.15;1.13;;;;;;;10.29;100.00;97852.91;5174205;27;20053;-48
2022/09/11 06:25:11;;;;;;;1.17;1.10;;;;;;;10.27;100.00;97856.06;5174276;27;20042;-48
2022/09/11 06:27:38;;;;;;;1.73;1.30;;;;;;;10.16;100.00;97859.94;5174136;27;20085;-47
2022/09/11 06:30:06;;;;;;;1.60;1.50;;;;;;;10.03;100.00;97865.84;5174388;27;20129;-49
2022/09/11 06:32:32;;;;;;;1.48;1.38;;;;;;;10.06;100.00;97861.50;5174142;27;20489;-49
2022/09/11 06:34:58;;;;;;;1.42;1.33;;;;;;;9.95;100.00;97867.00;5173956;27;20050;-48
2022/09/11 06:37:24;;;;;;;1.23;1.20;;;;;;;10.04;100.00;97859.19;5174359;27;20486;-48
2022/09/11 06:39:51;;;;;;;2.45;1.80;;;;;;;10.24;100.00;97858.78;5173762;27;20106;-50
2022/09/11 06:42:18;;;;;;;1.85;1.67;;;;;;;10.32;100.00;97860.34;5174117;27;20175;-51
2022/09/11 06:44:44;;;;;;;2.25;1.90;;;;;;;10.33;100.00;97867.41;5173907;27;20054;-50
2022/09/11 06:47:12;;;;;;;2.80;1.80;;;;;;;10.43;100.00;97869.31;5173985;27;20046;-49
2022/09/11 06:49:38;;;;;;;2.00;1.90;;;;;;;10.20;100.00;97871.69;5173358;27;20086;-50
2022/09/11 06:52:04;;;;;;;2.20;2.00;;;;;;;10.38;100.00;97866.97;5173829;27;20050;-48
2022/09/11 06:54:30;;;;;;;2.03;1.92;;;;;;;10.36;100.00;97872.06;5173710;27;20175;-51
2022/09/11 06:56:57;;;;;;;2.10;1.95;;;;;;;10.38;100.00;97875.19;5173448;27;20046;-49
2022/09/11 06:59:23;;;;;;;2.08;1.98;;;;;;;10.49;100.00;97864.97;5173558;27;20149;-50
2022/09/11 07:01:50;;;;;;;2.30;2.10;;;;;;;10.53;100.00;97873.19;5173740;27;20054;-51
2022/09/11 07:04:17;;;;;;;3.70;2.10;;;;;;;10.48;100.00;97877.13;5173762;27;20050;-51
2022/09/11 07:06:43;;;;;;;1.83;1.73;;;;;;;10.49;100.00;97877.91;5173403;27;20501;-48
2022/09/11 07:09:11;;;;;;;2.58;2.10;;;;;;;10.49;100.00;97858.72;5173700;27;20050;-49
2022/09/11 07:11:42;;;;;;;2.20;2.03;;;;;;;10.73;100.00;97871.59;5173236;27;20050;-52
2022/09/11 07:14:08;;;;;;;2.25;1.83;;;;;;;10.70;100.00;97877.84;5173669;27;20504;-50
2022/09/11 07:16:35;;;;;;;1.52;1.42;;;;;;;10.66;100.00;97877.06;5173329;27;20129;-49
2022/09/11 07:19:02;;;;;;;2.00;1.85;;;;;;;10.80;100.00;97879.78;5173191;27;20054;-53
2022/09/11 07:21:29;;;;;;;2.13;1.50;;;;;;;10.85;100.00;97870.34;5173232;27;20050;-52
2022/09/11 07:23:58;;;;;;;1.58;1.48;;;;;;;10.82;100.00;97874.66;5173154;27;20192;-52
2022/09/11 07:26:25;;;;;;;1.90;1.80;;;;;;;11.05;100.00;97884.38;5173334;27;20132;-51
2022/09/11 07:28:53;;;;;;;1.67;1.58;;;;;;;10.98;100.00;97873.44;5173009;27;20060;-50
2022/09/11 07:31:21;;;;;;;1.70;1.60;;;;;;;11.30;100.00;97879.53;5173416;27;20140;-49
2022/09/11 07:33:49;;;;;;;5.25;1.80;;;;;;;11.22;100.00;97882.72;5172978;27;20090;-50
2022/09/11 07:36:18;;;;;;;1.52;1.40;;;;;;;11.46;100.00;97884.56;5173356;27;20064;-49
2022/09/11 07:38:45;;;;;;;1.60;1.50;;;;;;;11.37;100.00;97886.94;5172846;27;20049;-48
2022/09/11 07:41:13;;;;;;;2.55;1.58;;;;;;;11.29;100.00;97896.38;5173032;27;20058;-50
2022/09/11 07:43:40;;;;;;;1.65;1.55;;;;;;;11.55;100.00;97890.34;5172885;27;20046;-50
2022/09/11 07:46:09;;;;;;;1.40;1.30;;;;;;;11.37;100.00;97903.41;5172946;27;20057;-49
2022/09/11 07:48:36;;;;;;;1.15;1.15;;;;;;;11.24;100.00;97903.09;5173113;27;20085;-50
2022/09/11 07:51:04;;;;;;;1.70;1.60;;;;;;;11.74;100.00;97907.50;5172753;27;20453;-51
2022/09/11 07:53:33;;;;;;;3.22;1.98;;;;;;;11.49;100.00;97908.41;5173290;27;20054;-51
2022/09/11 07:56:02;;;;;;;1.50;1.40;;;;;;;11.44;100.00;97902.59;5172822;27;20050;-51
2022/09/11 07:58:32;;;;;;;1.50;1.40;;;;;;;11.69;100.00;97900.44;5173231;27;20050;-49
2022/09/11 08:00:59;;;;;;;1.60;1.50;;;;;;;11.51;100.00;97913.53;5171989;27;20046;-49
2022/09/11 08:03:25;;;;;;;1.95;1.48;;;;;;;11.59;100.00;97909.53;5172932;27;20042;-50
2022/09/11 08:05:57;;;;;;;1.60;1.50;;;;;;;11.41;100.00;97926.13;5172611;27;20082;-50
2022/09/11 08:08:24;;;;;;;1.70;1.60;;;;;;;11.42;100.00;97915.91;5172872;27;20412;-49
2022/09/11 08:10:51;;;;;;;0.80;0.80;;;;;;;11.37;100.00;97914.38;5172877;27;20494;-48
2022/09/11 08:13:17;;;;;;;1.15;0.90;;;;;;;11.23;100.00;97917.19;5172587;27;20049;-50
2022/09/11 08:15:47;;;;;;;1.20;1.10;;;;;;;11.39;100.00;97908.50;5172678;27;20050;-50
2022/09/11 08:18:15;;;;;;;1.08;0.98;;;;;;;11.52;100.00;97917.81;5172545;27;20050;-48
2022/09/11 08:20:41;;;;;;;0.70;0.70;;;;;;;11.37;100.00;97919.88;5172730;27;20068;-49
2022/09/11 08:23:09;;;;;;;1.02;0.60;;;;;;;11.18;100.00;97925.84;5172291;27;20042;-48
2022/09/11 08:25:36;;;;;;;2.35;0.70;;;;;;;11.29;100.00;97935.56;5172924;27;20416;-49
2022/09/11 08:28:03;;;;;;;0.60;0.60;;;;;;;11.48;100.00;97947.25;5172326;27;20056;-51
2022/09/11 08:30:31;;;;;;;0.55;0.55;;;;;;;11.37;100.00;97954.78;5172598;27;20054;-49
2022/09/11 08:32:58;;;;;;;1.33;0.68;;;;;;;11.59;100.00;97969.16;5172169;27;20493;-50
2022/09/11 08:35:25;;;;;;;0.52;0.50;;;;;;;11.49;100.00;97973.50;5172560;27;20046;-49
2022/09/11 08:37:52;;;;;;;1.52;0.70;;;;;;;11.42;100.00;97985.31;5171991;27;20054;-49
2022/09/11 08:40:18;;;;;;;0.60;0.60;;;;;;;11.28;100.00;97993.59;5172086;27;20053;-48
2022/09/11 08:42:46;;;;;;;0.85;0.50;;;;;;;11.88;100.00;97995.28;5172273;27;20046;-49
2022/09/11 08:45:17;;;;;;;0.93;0.60;;;;;;;11.43;100.00;98030.78;5171968;27;20462;-49
2022/09/11 08:47:48;;;;;;;0.90;0.60;;;;;;;11.42;100.00;98029.22;5172329;27;20476;-49
2022/09/11 08:50:22;;;;;;;1.90;0.63;;;;;;;11.55;100.00;98024.84;5171979;27;20054;-49
2022/09/11 08:52:49;;;;;;;1.40;1.13;;;;;;;11.40;100.00;98028.84;5172552;27;20073;-51
2022/09/11 08:55:27;;;;;;;1.90;1.42;;;;;;;10.82;100.00;98033.69;5172039;27;20141;-51
2022/09/11 08:58:06;;;;;;;1.10;1.00;;;;;;;11.25;100.00;98022.59;5172413;27;20050;-51
2022/09/11 09:00:41;;;;;;;3.17;0.98;;;;;;;11.49;100.00;98020.16;5171853;27;20493;-49
2022/09/11 09:03:28;;;;;;;2.38;0.82;;;;;;;11.29;100.00;98026.13;5171816;27;20058;-50
2022/09/11 09:06:03;;;;;;;0.88;0.82;;;;;;;11.16;100.00;98022.28;5171960;27;20056;-49
2022/09/11 09:08:36;;;;;;;;;;;;;;;10.94;100.00;98028.97;5172080;27;20057;-50
2022/09/11 09:11:14;;;;;;;2.00;0.90;;;;;;;10.97;100.00;98044.63;5171944;27;19923;-50
2022/09/11 09:14:06;;;;;;;0.77;0.77;;;;;;;11.16;100.00;98033.25;5174384;27;20046;-49
2022/09/11 09:16:45;;;;;;;3.92;0.60;;;;;;;11.19;100.00;98050.84;5175150;27;20058;-51
2022/09/11 09:19:16;;;;;;;0.60;0.60;;;;;;;11.00;100.00;98055.59;5175405;27;20046;-53
2022/09/11 09:21:49;;;;;;;2.38;0.88;;;;;;;10.80;100.00;98046.22;5175265;27;20042;-51
2022/09/11 09:24:19;;;;;;;0.80;0.80;;;;;;;10.50;100.00;98041.16;5175535;27;20046;-50
2022/09/11 09:26:49;;;;;;;0.70;0.70;;;;;;;10.49;100.00;98025.88;5174992;27;20054;-53
2022/09/11 09:29:20;;;;;;;1.65;0.80;;;;;;;10.73;100.00;98021.53;5175199;27;20050;-51
2022/09/11 09:31:52;;;;;;;0.65;0.65;;;;;;;10.81;100.00;98006.66;5175102;27;20046;-49
2022/09/11 09:34:20;;;;;;;0.77;0.77;;;;;;;10.80;100.00;98022.34;5175375;27;20741;-49
2022/09/11 09:36:56;;;;;;;0.75;0.75;;;;;;;10.82;100.00;98010.97;5175188;27;20054;-52
2022/09/11 09:39:24;;;;;;;0.90;0.80;;;;;;;11.12;100.00;98015.22;5174727;27;20046;-49
2022/09/11 09:42:11;;;;;;;0.85;0.85;;;;;;;11.00;100.00;98028.19;5174968;27;20102;-52
2022/09/11 09:44:50;;;;;;;2.15;0.77;;;;;;;10.64;100.00;98040.38;5174805;27;20050;-53
2022/09/11 09:47:18;;;;;;;0.63;0.60;;;;;;;10.80;100.00;98029.78;5174861;27;20053;-48
2022/09/11 09:49:46;;;;;;;2.92;0.85;;;;;;;11.22;100.00;98025.38;5174610;27;20050;-49
2022/09/11 09:52:17;;;;;;;1.23;0.93;;;;;;;10.79;100.00;98045.41;5174713;27;20088;-49
2022/09/11 09:54:52;;;;;;;1.55;1.17;;;;;;;11.01;100.00;98042.66;5174636;27;20046;-52
2022/09/11 09:57:20;;;;;;;1.60;1.50;;;;;;;11.17;100.00;98039.50;5174702;27;20052;-49
2022/09/11 09:59:54;;;;;;;6.65;1.38;;;;;;;10.58;100.00;98051.72;5174587;27;20046;-48
2022/09/11 10:02:38;;;;;;;1.10;1.10;;;;;;;10.85;100.00;98048.56;5174366;27;20496;-49
2022/09/11 10:05:17;;;;;;;2.20;1.30;;;;;;;10.76;100.00;98035.28;5174692;27;20512;-52
2022/09/11 10:07:49;;;;;;;1.55;1.40;;;;;;;10.92;100.00;98040.31;5174486;27;20137;-51
2022/09/11 10:10:24;;;;;;;1.52;1.42;;;;;;;10.36;100.00;98044.66;5174461;27;20513;-51
2022/09/11 10:12:51;;;;;;;2.60;1.50;;;;;;;10.64;100.00;98043.88;5174444;27;20046;-49
2022/09/11 10:15:21;;;;;;;2.13;1.27;;;;;;;10.77;100.00;98045.06;5174286;27;20132;-50
2022/09/11 10:17:49;;;;;;;1.63;1.30;;;;;;;10.79;100.00;98044.66;5174255;27;20057;-51
2022/09/11 10:20:28;;;;;;;1.27;1.17;;;;;;;10.95;100.00;98055.22;5173998;27;20533;-50
2022/09/11 10:22:55;;;;;;;1.88;1.08;;;;;;;10.59;100.00;98063.44;5174594;27;20141;-49
2022/09/11 10:25:25;;;;;;;2.35;1.05;;;;;;;10.36;100.00;98061.09;5173507;27;20582;-51
2022/09/11 10:28:05;;;;;;;2.47;1.35;;;;;;;10.41;100.00;98059.94;5174714;27;20617;-48
2022/09/11 10:30:37;;;;;;;1.58;1.00;;;;;;;10.65;100.00;98048.19;5174055;27;20058;-49
2022/09/11 10:33:17;;;;;;;0.90;0.90;;;;;;;10.85;100.00;98062.28;5173985;27;20053;-49
2022/09/11 10:35:52;;;;;;;0.70;0.70;;;;;;;10.62;100.00;98068.16;5174168;27;20046;-48
2022/09/11 10:38:19;;;;;;;1.58;1.00;;;;;;;10.77;100.00;98071.69;5173899;27;20493;-50
2022/09/11 10:40:58;;;;;;;1.73;0.90;;;;;;;10.52;100.00;98068.94;5173927;27;20083;-49
2022/09/11 10:43:30;;;;;;;1.35;1.20;;;;;;;10.96;100.00;98079.50;5173798;27;20505;-49
2022/09/11 10:46:06;;;;;;;5.82;1.90;;;;;;;10.58;100.00;98087.34;5173747;27;20054;-49
2022/09/11 10:48:33;;;;;;;1.13;1.02;;;;;;;10.81;100.00;98089.69;5173879;27;20557;-50
2022/09/11 10:51:10;;;;;;;1.50;1.38;;;;;;;10.95;100.00;98091.63;5173998;27;20101;-49
2022/09/11 10:53:50;;;;;;;1.10;1.10;;;;;;;10.84;100.00;98094.38;5173925;27;20050;-49
2022/09/11 10:56:17;;;;;;;1.38;1.20;;;;;;;11.23;100.00;98109.22;5173609;27;20046;-49
2022/09/11 10:58:47;;;;;;;1.77;1.40;;;;;;;11.08;100.00;98112.00;5173870;27;20049;-52
2022/09/11 11:01:14;;;;;;;2.60;1.52;;;;;;;11.12;100.00;98130.41;5173549;27;20054;-49
2022/09/11 11:03:41;;;;;;;1.35;1.25;;;;;;;11.07;100.00;98137.09;5173586;27;20145;-52
2022/09/11 11:06:22;;;;;;;1.70;1.60;;;;;;;10.94;100.00;98144.16;5173525;27;20497;-50
2022/09/11 11:09:09;;;;;;;1.83;1.50;;;;;;;10.97;100.00;98146.09;5173628;27;20050;-50
2022/09/11 11:11:55;;;;;;;1.40;1.30;;;;;;;11.00;100.00;98143.34;5173939;27;20125;-49
2022/09/11 11:14:54;;;;;;;1.23;1.17;;;;;;;10.87;100.00;98166.88;5173253;27;20053;-50
2022/09/11 11:17:30;;;;;;;1.50;1.40;;;;;;;11.20;100.00;98162.94;5173456;27;20405;-51
2022/09/11 11:20:12;;;;;;;3.05;1.90;;;;;;;11.20;100.00;98187.63;5173199;27;20141;-52
2022/09/11 11:23:03;;;;;;;1.90;1.70;;;;;;;11.36;100.00;98225.63;5173288;27;20054;-49
2022/09/11 11:25:42;;;;;;;1.70;1.13;;;;;;;10.87;100.00;98249.13;5170902;27;20046;-49
2022/09/11 11:28:25;;;;;;;2.33;1.30;;;;;;;11.46;100.00;98235.84;5173203;27;20186;-50
2022/09/11 11:31:01;;;;;;;2.83;1.30;;;;;;;11.13;100.00;98267.19;5173511;27;20050;-49
2022/09/11 11:33:42;;;;;;;1.55;1.17;;;;;;;11.25;100.00;98279.72;5173081;27;20506;-51
2022/09/11 11:36:25;;;;;;;1.10;1.10;;;;;;;11.08;100.00;98287.53;5171773;27;20046;-50
2022/09/11 11:38:59;;;;;;;1.85;1.35;;;;;;;11.22;100.00;98297.75;5173174;27;20505;-51
2022/09/11 11:41:30;;;;;;;1.20;1.10;;;;;;;10.95;100.00;98296.53;5172838;27;20046;-51
2022/09/11 11:44:01;;;;;;;1.40;1.30;;;;;;;11.20;100.00;98297.38;5173288;27;20050;-51